Time;durP1;ratioP1;P1;durP2;ratioP2;P2;SDS_P1;SDS_P2;PMS_P1;PMS_P2;Temp;Humidity;BMP_temperature;BMP_pressure;BME280_temperature;BME280_humidity;BME280_pressure;Samples;Min_cycle;Max_cycle;Signal;HPM_P1;HPM_P2
2022/05/08 00:00:24;;;;;;;14.57;10.97;;;8.30;99.90;;;;;;4196923;28;20205;-68
2022/05/08 00:02:24;;;;;;;19.30;13.37;;;8.30;99.90;;;;;;4196933;28;21050;-69
2022/05/08 00:04:25;;;;;;;14.73;11.37;;;8.20;99.90;;;;;;4196569;28;20183;-69
2022/05/08 00:06:25;;;;;;;19.07;13.17;;;8.20;99.90;;;;;;4196153;28;20186;-68
2022/05/08 00:08:28;;;;;;;16.03;12.40;;;8.20;99.90;;;;;;4196648;28;20180;-69
2022/05/08 00:10:29;;;;;;;15.00;12.00;;;8.10;99.90;;;;;;4196730;28;20213;-69
2022/05/08 00:12:29;;;;;;;15.53;11.23;;;8.10;99.90;;;;;;4196696;28;20454;-68
2022/05/08 00:14:30;;;;;;;16.83;11.97;;;8.10;99.90;;;;;;4196554;28;20191;-69
2022/05/08 00:16:30;;;;;;;15.87;11.50;;;8.00;99.90;;;;;;4211341;28;20186;-69
2022/05/08 00:18:31;;;;;;;16.33;11.30;;;8.00;99.90;;;;;;4196211;28;20190;-68
2022/05/08 00:20:32;;;;;;;15.90;10.77;;;8.00;99.90;;;;;;4196551;28;20215;-68
2022/05/08 00:22:33;;;;;;;17.23;11.50;;;7.90;99.90;;;;;;4196410;28;20278;-69
2022/05/08 00:24:34;;;;;;;17.27;12.00;;;7.90;99.90;;;;;;4196281;28;20515;-69
2022/05/08 00:26:35;;;;;;;16.27;11.80;;;8.00;99.90;;;;;;4195852;28;20179;-69
2022/05/08 00:28:36;;;;;;;17.67;11.43;;;7.90;99.90;;;;;;4196385;28;20176;-69
2022/05/08 00:30:36;;;;;;;16.53;12.87;;;7.90;99.90;;;;;;4196347;28;20188;-68
2022/05/08 00:32:37;;;;;;;15.13;11.27;;;7.90;99.90;;;;;;4195975;28;20413;-68
2022/05/08 00:34:37;;;;;;;19.03;12.10;;;7.80;99.90;;;;;;4196304;28;20184;-69
2022/05/08 00:36:38;;;;;;;17.00;12.60;;;7.80;99.90;;;;;;4194341;28;20215;-68
2022/05/08 00:38:39;;;;;;;17.73;12.33;;;7.90;99.90;;;;;;4195166;28;20248;-69
2022/05/08 00:40:39;;;;;;;16.37;12.60;;;7.90;99.90;;;;;;4196090;28;20250;-69
2022/05/08 00:42:41;;;;;;;17.53;11.87;;;7.90;99.90;;;;;;4196111;28;20215;-69
2022/05/08 00:44:42;;;;;;;17.33;13.93;;;7.90;99.90;;;;;;4196257;28;20179;-69
2022/05/08 00:46:42;;;;;;;17.27;13.13;;;7.90;99.90;;;;;;4195475;28;20416;-68
2022/05/08 00:48:43;;;;;;;17.70;12.17;;;8.00;99.90;;;;;;4195949;28;20183;-69
2022/05/08 00:50:44;;;;;;;18.83;12.63;;;8.10;99.90;;;;;;4195946;28;20207;-69
2022/05/08 00:52:45;;;;;;;15.40;12.17;;;8.10;99.90;;;;;;4195969;28;20195;-70
2022/05/08 00:54:45;;;;;;;13.67;10.87;;;8.10;99.90;;;;;;4195966;28;20410;-69
2022/05/08 00:56:46;;;;;;;14.50;11.13;;;8.10;99.90;;;;;;4195439;28;20265;-69
2022/05/08 00:58:50;;;;;;;13.27;10.57;;;8.10;99.90;;;;;;4195898;28;20663;-68
2022/05/08 01:00:51;;;;;;;13.10;10.93;;;8.20;99.90;;;;;;4196140;28;20286;-68
2022/05/08 01:02:51;;;;;;;12.77;9.10;;;8.20;99.90;;;;;;4195978;28;20486;-69
2022/05/08 01:04:52;;;;;;;15.67;10.97;;;8.30;99.90;;;;;;4195879;28;20172;-69
2022/05/08 01:06:52;;;;;;;14.10;11.03;;;8.30;99.90;;;;;;4195252;28;20275;-69
2022/05/08 01:08:54;;;;;;;14.87;10.97;;;8.40;99.90;;;;;;4195670;28;20180;-68
2022/05/08 01:10:55;;;;;;;15.47;10.97;;;8.50;99.90;;;;;;4196041;28;20198;-69
2022/05/08 01:12:56;;;;;;;14.17;10.60;;;8.50;99.90;;;;;;4195535;28;20407;-69
2022/05/08 01:15:14;;;;;;;14.87;11.90;;;8.60;99.90;;;;;;4195484;28;20191;-68
2022/05/08 01:17:14;;;;;;;18.93;12.00;;;8.60;99.90;;;;;;4194878;28;20191;-69
2022/05/08 01:19:15;;;;;;;14.97;11.30;;;8.60;99.90;;;;;;4195281;28;20695;-69
2022/05/08 01:21:18;;;;;;;16.93;11.53;;;8.60;99.90;;;;;;4195486;28;20231;-69
2022/05/08 01:23:19;;;;;;;16.53;11.67;;;8.70;99.90;;;;;;4195246;28;20498;-68
2022/05/08 01:25:19;;;;;;;15.53;11.83;;;8.70;99.90;;;;;;4195094;28;20169;-68
2022/05/08 01:27:20;;;;;;;13.37;10.13;;;8.70;99.90;;;;;;4195468;28;20524;-69
2022/05/08 01:29:21;;;;;;;14.27;11.27;;;8.80;99.90;;;;;;4195620;28;20688;-69
2022/05/08 01:31:22;;;;;;;12.73;9.87;;;8.70;99.90;;;;;;4195554;28;20175;-69
2022/05/08 01:33:23;;;;;;;13.67;10.27;;;8.80;99.90;;;;;;4195395;28;20207;-69
2022/05/08 01:35:24;;;;;;;13.00;10.53;;;8.90;99.90;;;;;;4194307;28;20182;-69
2022/05/08 01:37:25;;;;;;;11.50;9.70;;;8.90;99.90;;;;;;4195128;28;20677;-69
2022/05/08 01:39:25;;;;;;;11.77;9.70;;;8.80;99.90;;;;;;4195107;28;20196;-69
2022/05/08 01:41:26;;;;;;;11.90;9.77;;;8.80;99.90;;;;;;4195075;28;20183;-69
2022/05/08 01:43:31;;;;;;;15.87;9.93;;;8.80;99.90;;;;;;4194329;28;20781;-69
2022/05/08 01:45:33;;;;;;;11.87;9.03;;;8.80;99.90;;;;;;4194644;28;20647;-69
2022/05/08 01:49:54;;;;;;;11.13;9.53;;;8.80;99.90;;;;;;4194951;28;20443;-69
2022/05/08 01:51:54;;;;;;;13.30;10.50;;;8.90;99.90;;;;;;4194870;28;20420;-68
2022/05/08 01:53:55;;;;;;;14.47;11.50;;;8.80;99.90;;;;;;4194985;28;20183;-68
2022/05/08 01:55:56;;;;;;;13.43;10.97;;;8.80;99.90;;;;;;4194513;28;20239;-69
2022/05/08 01:57:56;;;;;;;13.50;10.10;;;8.80;99.90;;;;;;4195102;28;20194;-69
2022/05/08 01:59:57;;;;;;;14.47;11.13;;;8.70;99.90;;;;;;4195016;28;20260;-69
2022/05/08 02:01:57;;;;;;;15.77;12.47;;;8.70;99.90;;;;;;4194857;28;20222;-69
2022/05/08 02:03:58;;;;;;;14.73;12.23;;;8.70;99.90;;;;;;4194936;28;20647;-69
2022/05/08 02:05:59;;;;;;;14.67;11.07;;;8.60;99.90;;;;;;4209630;28;20226;-69
2022/05/08 02:08:01;;;;;;;16.17;11.50;;;8.60;99.90;;;;;;4194823;28;20715;-69
2022/05/08 02:10:02;;;;;;;16.67;11.27;;;8.50;99.90;;;;;;4195005;28;20204;-69
2022/05/08 02:12:03;;;;;;;14.37;10.67;;;8.50;99.90;;;;;;4194607;28;21213;-69
2022/05/08 02:14:06;;;;;;;14.30;11.07;;;8.40;99.90;;;;;;4194660;28;20521;-69
2022/05/08 02:16:08;;;;;;;17.00;12.10;;;8.40;99.90;;;;;;4194103;28;20407;-69
2022/05/08 02:18:09;;;;;;;16.07;11.37;;;8.30;99.90;;;;;;4187130;28;20437;-69
2022/05/08 02:20:11;;;;;;;14.70;11.07;;;8.20;99.90;;;;;;4194322;28;20438;-69
2022/05/08 02:22:12;;;;;;;17.37;11.57;;;8.20;99.90;;;;;;4194467;28;20564;-69
2022/05/08 02:24:12;;;;;;;17.53;11.80;;;8.10;99.90;;;;;;4194095;28;20495;-69
2022/05/08 02:26:13;;;;;;;14.57;10.70;;;8.10;99.90;;;;;;4194001;28;20526;-69
2022/05/08 02:28:13;;;;;;;14.53;11.00;;;8.10;99.90;;;;;;4194631;28;20215;-69
2022/05/08 02:30:14;;;;;;;15.97;11.10;;;8.00;99.90;;;;;;4194848;28;20253;-69
2022/05/08 02:32:15;;;;;;;16.03;11.60;;;8.00;99.90;;;;;;4194806;28;20186;-69
2022/05/08 02:34:16;;;;;;;14.53;11.67;;;7.90;99.90;;;;;;4193503;28;20533;-69
2022/05/08 02:36:16;;;;;;;13.90;11.00;;;7.90;99.90;;;;;;4193767;28;20492;-69
2022/05/08 02:38:17;;;;;;;15.73;10.97;;;7.90;99.90;;;;;;4194772;28;20180;-69
2022/05/08 02:40:20;;;;;;;14.47;11.60;;;7.80;99.90;;;;;;4194487;28;20231;-69
2022/05/08 02:42:20;;;;;;;15.27;12.57;;;7.90;99.90;;;;;;4194540;28;20264;-69
2022/05/08 02:44:21;;;;;;;14.37;10.97;;;7.80;99.90;;;;;;4193133;28;20976;-69
2022/05/08 02:46:22;;;;;;;17.70;11.87;;;7.70;99.90;;;;;;4193842;28;20172;-69
2022/05/08 02:48:22;;;;;;;16.57;10.97;;;7.70;99.90;;;;;;4194438;28;20176;-69
2022/05/08 02:50:24;;;;;;;16.70;12.30;;;7.70;99.90;;;;;;4194536;28;20206;-69
2022/05/08 02:52:24;;;;;;;15.00;11.13;;;7.70;99.90;;;;;;4194684;28;20171;-69
2022/05/08 02:54:25;;;;;;;16.20;10.93;;;7.70;99.90;;;;;;4195594;28;20437;-69
2022/05/08 02:58:45;;;;;;;15.23;11.27;;;7.60;99.90;;;;;;4197941;28;20345;-69
2022/05/08 03:00:47;;;;;;;13.83;10.00;;;7.50;99.90;;;;;;4197828;28;20438;-69
2022/05/08 03:02:47;;;;;;;15.50;11.43;;;7.50;99.90;;;;;;4197588;28;20294;-69
2022/05/08 03:04:48;;;;;;;16.67;11.67;;;7.50;99.90;;;;;;4197749;28;20414;-69
2022/05/08 03:06:48;;;;;;;17.40;12.90;;;7.40;99.90;;;;;;4197110;28;20201;-69
2022/05/08 03:08:51;;;;;;;21.37;12.20;;;7.40;99.90;;;;;;4197711;28;20175;-69
2022/05/08 03:13:11;;;;;;;18.03;12.77;;;7.40;99.90;;;;;;4197564;28;20409;-69
2022/05/08 03:15:11;;;;;;;15.87;11.77;;;7.30;99.90;;;;;;4197273;28;20796;-69
2022/05/08 03:17:12;;;;;;;17.97;12.50;;;7.30;99.90;;;;;;4197083;28;20658;-69
2022/05/08 03:19:13;;;;;;;25.17;12.07;;;7.20;99.90;;;;;;4197450;28;20184;-69
2022/05/08 03:21:14;;;;;;;22.40;12.20;;;7.20;99.90;;;;;;4197209;28;20238;-69
2022/05/08 03:23:15;;;;;;;16.77;11.50;;;7.20;99.90;;;;;;4197288;28;20837;-69
2022/05/08 03:25:15;;;;;;;16.93;11.63;;;7.10;99.90;;;;;;4197145;28;20493;-69
2022/05/08 03:27:16;;;;;;;16.27;11.67;;;7.10;99.90;;;;;;4196879;28;20180;-69
2022/05/08 03:29:16;;;;;;;17.10;11.27;;;7.10;99.90;;;;;;4197222;28;20168;-69
2022/05/08 03:31:17;;;;;;;16.17;11.30;;;7.10;99.90;;;;;;4197502;28;20180;-69
2022/05/08 03:33:18;;;;;;;14.00;10.47;;;7.00;99.90;;;;;;4197261;28;20194;-69
2022/05/08 03:35:18;;;;;;;17.53;11.20;;;7.00;99.90;;;;;;4197017;28;20286;-69
2022/05/08 03:37:19;;;;;;;15.57;10.20;;;7.00;99.90;;;;;;4197104;28;20184;-69
2022/05/08 03:39:19;;;;;;;14.93;11.00;;;6.90;99.90;;;;;;4197314;28;20176;-69
2022/05/08 03:41:20;;;;;;;15.73;10.83;;;7.00;99.90;;;;;;4197136;28;20229;-69
2022/05/08 03:43:23;;;;;;;17.33;11.77;;;6.90;99.90;;;;;;4197018;28;20306;-69
2022/05/08 03:45:24;;;;;;;14.73;10.83;;;6.90;99.90;;;;;;4196013;28;20188;-69
2022/05/08 03:47:24;;;;;;;16.57;11.97;;;6.90;99.90;;;;;;4196903;28;20453;-69
2022/05/08 03:49:25;;;;;;;15.83;11.07;;;6.80;99.90;;;;;;4196860;28;20187;-69
2022/05/08 03:51:25;;;;;;;17.10;12.20;;;6.90;99.90;;;;;;4196899;28;20228;-69
2022/05/08 03:53:26;;;;;;;17.00;11.97;;;6.80;99.90;;;;;;4196957;28;20179;-69
2022/05/08 03:55:27;;;;;;;15.67;11.30;;;6.80;99.90;;;;;;4196478;28;20179;-69
2022/05/08 03:57:27;;;;;;;13.70;10.23;;;6.80;99.90;;;;;;4196976;28;20226;-69
2022/05/08 03:59:28;;;;;;;17.73;12.23;;;6.80;99.90;;;;;;4196960;28;20187;-69
2022/05/08 04:01:28;;;;;;;15.57;12.57;;;6.80;99.90;;;;;;4197022;28;20180;-70
2022/05/08 04:03:29;;;;;;;18.33;12.20;;;6.70;99.90;;;;;;4196678;28;20261;-70
2022/05/08 04:05:29;;;;;;;19.50;13.17;;;6.70;99.90;;;;;;4195989;28;20190;-69
2022/05/08 04:07:30;;;;;;;15.60;10.90;;;6.60;99.90;;;;;;4196216;28;20183;-69
2022/05/08 04:09:31;;;;;;;20.93;13.27;;;6.70;99.90;;;;;;4196688;28;20208;-69
2022/05/08 04:11:31;;;;;;;15.13;11.70;;;6.70;99.90;;;;;;4196560;28;20183;-69
2022/05/08 04:13:32;;;;;;;18.47;12.93;;;6.70;99.90;;;;;;4196799;28;20639;-69
2022/05/08 04:17:52;;;;;;;16.73;11.33;;;6.80;99.90;;;;;;4196495;28;20191;-69
2022/05/08 04:19:52;;;;;;;17.47;12.10;;;6.70;99.90;;;;;;4196530;28;20445;-70
2022/05/08 04:24:16;;;;;;;15.47;11.47;;;6.70;99.90;;;;;;4197331;28;20294;-70
2022/05/08 04:24:19;;;;;;;14.30;10.53;;;6.70;99.90;;;;;;4196388;28;20241;-69
2022/05/08 04:26:20;;;;;;;14.40;9.97;;;6.70;99.90;;;;;;4195882;28;20414;-69
2022/05/08 04:28:21;;;;;;;15.53;10.33;;;6.60;99.90;;;;;;4196269;28;20412;-70
2022/05/08 04:30:21;;;;;;;13.40;10.33;;;6.60;99.90;;;;;;4196313;28;20278;-69
2022/05/08 04:32:22;;;;;;;15.87;10.93;;;6.60;99.90;;;;;;4196235;28;20180;-69
2022/05/08 04:34:22;;;;;;;13.97;9.93;;;6.60;99.90;;;;;;4194674;28;20210;-69
2022/05/08 04:36:23;;;;;;;17.00;11.40;;;6.60;99.90;;;;;;4195541;28;20221;-70
2022/05/08 04:38:23;;;;;;;14.20;10.63;;;6.60;99.90;;;;;;4196117;28;20180;-69
2022/05/08 04:40:24;;;;;;;15.00;10.83;;;6.60;99.90;;;;;;4196064;28;20203;-69
2022/05/08 04:42:25;;;;;;;19.43;11.47;;;6.70;99.90;;;;;;4196080;28;20203;-69
2022/05/08 04:44:26;;;;;;;15.33;10.77;;;6.70;99.90;;;;;;4211313;28;20695;-70
2022/05/08 04:46:28;;;;;;;14.93;10.80;;;6.70;99.90;;;;;;4195356;28;20414;-70
2022/05/08 04:48:28;;;;;;;14.30;10.57;;;6.70;99.90;;;;;;4195911;28;20170;-70
2022/05/08 04:50:29;;;;;;;16.83;11.53;;;6.70;99.90;;;;;;4195859;28;20509;-70
2022/05/08 04:52:29;;;;;;;14.47;9.80;;;6.70;99.90;;;;;;4196044;28;20180;-70
2022/05/08 04:54:30;;;;;;;15.13;10.67;;;6.70;99.90;;;;;;4195981;28;20180;-69
2022/05/08 04:56:31;;;;;;;15.33;10.90;;;6.70;99.90;;;;;;4195304;28;20183;-70
2022/05/08 04:58:31;;;;;;;12.83;9.90;;;6.70;99.90;;;;;;4195993;28;20635;-69
2022/05/08 05:00:32;;;;;;;15.10;10.80;;;6.70;99.90;;;;;;4196003;28;20223;-70
2022/05/08 05:02:33;;;;;;;13.47;9.83;;;6.70;99.90;;;;;;4195858;28;20267;-70
2022/05/08 05:04:35;;;;;;;14.87;10.70;;;6.80;99.90;;;;;;4195915;28;20179;-70
2022/05/08 05:06:35;;;;;;;14.80;10.23;;;6.70;99.90;;;;;;4195154;28;20429;-70
2022/05/08 05:08:36;;;;;;;13.93;10.80;;;6.70;99.90;;;;;;4195865;28;20406;-70
2022/05/08 05:10:37;;;;;;;11.90;9.57;;;6.80;99.90;;;;;;4196005;28;20192;-69
2022/05/08 05:12:38;;;;;;;14.60;10.13;;;6.80;99.90;;;;;;4195704;28;20187;-70
2022/05/08 05:14:39;;;;;;;15.90;10.50;;;6.80;99.90;;;;;;4195688;28;20176;-70
2022/05/08 05:16:39;;;;;;;15.00;11.03;;;6.80;99.90;;;;;;4195251;28;20406;-70
2022/05/08 05:18:40;;;;;;;14.97;11.10;;;6.70;99.90;;;;;;4195712;28;20190;-70
2022/05/08 05:20:41;;;;;;;13.60;10.17;;;6.80;99.90;;;;;;4195795;28;20211;-70
2022/05/08 05:22:42;;;;;;;15.33;11.17;;;7.00;99.90;;;;;;4195505;28;20206;-70
2022/05/08 05:24:42;;;;;;;15.07;10.33;;;7.00;99.90;;;;;;4195544;28;20940;-70
2022/05/08 05:26:43;;;;;;;14.27;10.43;;;7.10;99.90;;;;;;4194850;28;20183;-70
2022/05/08 05:28:44;;;;;;;15.53;10.60;;;7.10;99.90;;;;;;4195562;28;20657;-70
2022/05/08 05:30:45;;;;;;;14.93;10.43;;;7.10;99.90;;;;;;4195415;28;20241;-70
2022/05/08 05:32:45;;;;;;;14.30;10.20;;;7.10;99.90;;;;;;4195174;28;20418;-70
2022/05/08 05:34:46;;;;;;;14.70;11.13;;;7.20;99.90;;;;;;4195341;28;20647;-70
2022/05/08 05:36:46;;;;;;;13.73;10.67;;;7.20;99.90;;;;;;4194785;28;20180;-70
2022/05/08 05:38:47;;;;;;;15.20;11.03;;;7.30;99.90;;;;;;4195238;28;20243;-70
2022/05/08 05:40:47;;;;;;;16.17;12.40;;;7.30;99.90;;;;;;4195228;28;20200;-70
2022/05/08 05:42:48;;;;;;;15.73;11.30;;;7.30;99.90;;;;;;4195004;28;20912;-70
2022/05/08 05:44:49;;;;;;;16.93;11.83;;;7.40;99.90;;;;;;4195174;28;20658;-70
2022/05/08 05:49:08;;;;;;;15.53;10.70;;;7.60;99.90;;;;;;4194589;28;20182;-70
2022/05/08 05:51:09;;;;;;;16.20;11.87;;;7.70;99.90;;;;;;4195208;28;20431;-70
2022/05/08 05:53:09;;;;;;;21.17;12.60;;;7.70;99.90;;;;;;4195318;28;20180;-70
2022/05/08 05:55:10;;;;;;;20.73;14.17;;;7.90;99.90;;;;;;4194829;28;20177;-70
2022/05/08 05:57:11;;;;;;;18.80;13.00;;;8.00;99.90;;;;;;4194639;28;20176;-70
2022/05/08 05:59:11;;;;;;;20.83;14.77;;;8.10;99.90;;;;;;4195002;28;20195;-70
2022/05/08 06:01:11;;;;;;;16.90;12.90;;;8.10;99.90;;;;;;4194988;28;20202;-70
2022/05/08 06:03:12;;;;;;;17.23;12.63;;;8.20;99.90;;;;;;4194911;28;20217;-70
2022/05/08 06:05:14;;;;;;;16.83;11.87;;;8.30;99.90;;;;;;4194713;28;20177;-70
2022/05/08 06:07:14;;;;;;;23.43;13.60;;;8.30;99.90;;;;;;4194657;28;20236;-70
2022/05/08 06:09:15;;;;;;;19.50;12.93;;;8.40;99.90;;;;;;4195026;28;21026;-70
2022/05/08 06:11:15;;;;;;;16.60;12.87;;;8.50;99.90;;;;;;4194800;28;20188;-70
2022/05/08 06:13:17;;;;;;;17.47;12.60;;;8.70;99.90;;;;;;4194904;28;20204;-70
2022/05/08 06:15:17;;;;;;;20.93;14.23;;;8.80;99.90;;;;;;4194507;28;20751;-70
2022/05/08 06:17:18;;;;;;;20.20;14.17;;;8.90;99.90;;;;;;4194021;28;20271;-70
2022/05/08 06:19:18;;;;;;;17.73;12.67;;;8.90;99.90;;;;;;4194655;28;20186;-70
2022/05/08 06:21:19;;;;;;;17.77;12.57;;;9.10;99.90;;;;;;4194517;28;20258;-71
2022/05/08 06:23:19;;;;;;;14.87;11.33;;;9.20;99.90;;;;;;4194488;28;20571;-70
2022/05/08 06:25:20;;;;;;;19.73;13.57;;;9.30;99.90;;;;;;4194126;28;20180;-70
2022/05/08 06:27:20;;;;;;;15.03;11.20;;;9.50;99.90;;;;;;4194723;28;20178;-70
2022/05/08 06:29:21;;;;;;;15.50;11.47;;;9.60;99.90;;;;;;4194368;28;20177;-70
2022/05/08 06:31:22;;;;;;;12.77;10.17;;;9.80;99.90;;;;;;4195007;28;20254;-70
2022/05/08 06:33:22;;;;;;;13.63;10.17;;;9.90;99.90;;;;;;4194735;28;20186;-70
2022/05/08 06:35:23;;;;;;;15.90;11.07;;;10.10;99.90;;;;;;4194197;28;20184;-70
2022/05/08 06:37:23;;;;;;;12.83;9.93;;;10.10;99.90;;;;;;4194661;28;20175;-70
2022/05/08 06:39:24;;;;;;;12.80;9.57;;;10.10;99.90;;;;;;4194740;28;20183;-70
2022/05/08 06:41:25;;;;;;;10.70;8.17;;;10.20;99.90;;;;;;4194899;28;20182;-70
2022/05/08 06:43:25;;;;;;;9.40;7.67;;;10.50;99.90;;;;;;4194401;28;20317;-71
2022/05/08 06:45:26;;;;;;;9.20;7.03;;;10.60;99.90;;;;;;4194020;28;20754;-71
2022/05/08 06:47:26;;;;;;;9.03;7.50;;;10.80;99.90;;;;;;4194592;28;20229;-71
2022/05/08 06:49:27;;;;;;;9.47;7.03;;;10.90;99.90;;;;;;4194337;28;20222;-71
2022/05/08 06:51:27;;;;;;;9.07;6.43;;;11.10;99.90;;;;;;4194680;28;20178;-71
2022/05/08 06:53:28;;;;;;;8.00;6.27;;;11.20;99.90;;;;;;4194511;28;20207;-70
2022/05/08 06:55:29;;;;;;;6.77;5.80;;;11.50;99.90;;;;;;4193953;28;20160;-70
2022/05/08 06:57:29;;;;;;;6.23;5.47;;;11.50;99.90;;;;;;4194479;28;20168;-71
2022/05/08 07:01:49;;;;;;;7.20;6.00;;;11.80;99.90;;;;;;4194582;28;20194;-71
2022/05/08 07:03:49;;;;;;;6.30;5.63;;;11.90;99.90;;;;;;4194364;28;20251;-71
2022/05/08 07:05:50;;;;;;;6.83;4.97;;;11.90;99.90;;;;;;4193779;28;20179;-71
2022/05/08 07:07:50;;;;;;;7.00;5.87;;;12.20;99.90;;;;;;4194458;28;20180;-71
2022/05/08 07:09:51;;;;;;;5.63;4.90;;;12.40;97.10;;;;;;4194263;28;20200;-70
2022/05/08 07:11:52;;;;;;;7.60;5.80;;;12.40;97.00;;;;;;4194171;28;20179;-71
2022/05/08 07:13:52;;;;;;;5.80;5.13;;;12.30;99.40;;;;;;4194257;28;20179;-71
2022/05/08 07:15:53;;;;;;;7.87;5.17;;;12.30;99.90;;;;;;4193517;28;20545;-71
2022/05/08 07:17:54;;;;;;;5.73;5.00;;;12.50;97.60;;;;;;4194134;28;20175;-71
2022/05/08 07:19:55;;;;;;;6.03;5.00;;;12.60;97.90;;;;;;4194277;28;20191;-71
2022/05/08 07:21:56;;;;;;;8.80;5.23;;;12.80;96.60;;;;;;4194053;28;20311;-71
2022/05/08 07:23:56;;;;;;;6.50;4.97;;;12.80;96.90;;;;;;4194197;28;20207;-71
2022/05/08 07:25:57;;;;;;;5.90;5.27;;;13.00;94.80;;;;;;4193548;28;20179;-70
2022/05/08 07:27:57;;;;;;;5.63;5.13;;;13.30;94.80;;;;;;4194130;28;20180;-70
2022/05/08 07:29:58;;;;;;;5.63;4.50;;;13.30;92.20;;;;;;4194105;28;20191;-70
2022/05/08 07:31:58;;;;;;;5.27;4.50;;;13.50;92.80;;;;;;4194221;28;20237;-70
2022/05/08 07:36:18;;;;;;;5.23;4.73;;;13.40;93.00;;;;;;4193540;28;20190;-70
2022/05/08 07:38:21;;;;;;;5.60;4.87;;;13.50;92.10;;;;;;4194310;28;20551;-70
2022/05/08 07:40:22;;;;;;;5.17;4.60;;;13.70;91.50;;;;;;4194310;28;20199;-70
2022/05/08 07:42:22;;;;;;;5.37;4.20;;;14.00;92.20;;;;;;4196086;28;20753;-70
2022/05/08 07:44:23;;;;;;;6.07;4.67;;;14.20;91.30;;;;;;4197235;28;20183;-70
2022/05/08 07:46:25;;;;;;;6.47;5.10;;;14.20;90.00;;;;;;4196460;28;20175;-70
2022/05/08 07:48:25;;;;;;;6.23;4.37;;;14.30;91.40;;;;;;4196997;28;20172;-70
2022/05/08 07:50:26;;;;;;;4.77;4.37;;;14.40;89.00;;;;;;4197083;28;20195;-70
2022/05/08 07:52:27;;;;;;;5.50;4.63;;;14.50;88.60;;;;;;4196938;28;20199;-70
2022/05/08 07:54:28;;;;;;;5.77;4.40;;;14.60;89.80;;;;;;4196965;28;20795;-69
2022/05/08 07:56:28;;;;;;;6.93;4.33;;;14.70;87.60;;;;;;4196337;28;20191;-69
2022/05/08 07:58:32;;;;;;;4.57;4.17;;;14.90;86.50;;;;;;4196705;28;20241;-70
2022/05/08 08:00:32;;;;;;;5.00;4.23;;;15.00;84.10;;;;;;4196887;28;20298;-69
2022/05/08 08:02:33;;;;;;;6.27;4.57;;;15.20;83.70;;;;;;4196787;28;20211;-69
2022/05/08 08:04:34;;;;;;;6.13;5.07;;;15.20;78.70;;;;;;4196800;28;20183;-69
2022/05/08 08:06:35;;;;;;;4.57;4.07;;;15.40;81.40;;;;;;4196259;28;20172;-69
2022/05/08 08:08:36;;;;;;;5.67;4.57;;;15.50;77.90;;;;;;4196905;28;20194;-69
2022/05/08 08:10:36;;;;;;;4.73;4.20;;;15.60;77.70;;;;;;4196679;28;20282;-70
2022/05/08 08:12:37;;;;;;;4.20;3.67;;;15.90;76.60;;;;;;4196685;28;20813;-70
2022/05/08 08:14:37;;;;;;;8.57;5.07;;;16.00;74.50;;;;;;4196684;28;20194;-70
2022/05/08 08:16:39;;;;;;;7.23;4.87;;;15.30;79.80;;;;;;4196090;28;20274;-69
2022/05/08 08:18:43;;;;;;;6.30;4.77;;;15.20;77.90;;;;;;4196669;28;20175;-69
2022/05/08 08:20:44;;;;;;;4.70;4.27;;;15.40;77.10;;;;;;4196328;28;20741;-69
2022/05/08 08:22:45;;;;;;;5.47;4.90;;;15.80;74.90;;;;;;4196623;28;20212;-69
2022/05/08 08:24:46;;;;;;;5.80;4.93;;;15.90;71.30;;;;;;4196115;28;20233;-69
2022/05/08 08:26:47;;;;;;;4.33;3.93;;;15.70;73.60;;;;;;4195915;28;20179;-69
2022/05/08 08:28:48;;;;;;;4.57;4.00;;;15.60;75.30;;;;;;4196740;28;21158;-69
2022/05/08 08:30:48;;;;;;;7.57;4.33;;;15.80;71.80;;;;;;4196458;28;20211;-69
2022/05/08 08:32:49;;;;;;;5.07;4.57;;;15.90;72.70;;;;;;4196302;28;20182;-69
2022/05/08 08:34:49;;;;;;;6.13;4.63;;;16.00;75.00;;;;;;4194916;28;20188;-69
2022/05/08 08:36:50;;;;;;;5.23;4.40;;;16.00;70.50;;;;;;4195574;28;20176;-69
2022/05/08 08:38:50;;;;;;;6.83;5.30;;;16.00;73.20;;;;;;4196169;28;20593;-69
2022/05/08 08:40:53;;;;;;;5.90;4.17;;;16.10;71.60;;;;;;4196871;28;20199;-69
2022/05/08 08:42:58;;;;;;;5.90;4.20;;;16.00;73.30;;;;;;4198627;28;20210;-69
2022/05/08 08:49:52;;;;;;;4.33;3.93;;;16.90;65.50;;;;;;4198958;28;20202;-69
2022/05/08 08:51:52;;;;;;;4.33;3.93;;;17.10;64.00;;;;;;4198998;28;20199;-68
2022/05/08 08:53:55;;;;;;;5.37;3.90;;;17.30;64.10;;;;;;4199337;28;20178;-69
2022/05/08 08:55:57;;;;;;;4.73;4.30;;;17.60;63.40;;;;;;4198742;28;20595;-68
2022/05/08 08:57:57;;;;;;;3.93;3.63;;;17.70;63.00;;;;;;4199134;28;20172;-68
2022/05/08 08:59:58;;;;;;;5.03;4.00;;;17.60;59.40;;;;;;4199076;28;20196;-69
2022/05/08 09:01:58;;;;;;;4.13;3.63;;;17.70;59.00;;;;;;4198989;28;20163;-69
2022/05/08 09:04:00;;;;;;;6.50;4.17;;;17.80;57.80;;;;;;4198840;28;20187;-69
2022/05/08 09:06:02;;;;;;;5.00;3.87;;;17.90;57.10;;;;;;4198415;28;20230;-68
2022/05/08 09:08:03;;;;;;;5.27;3.80;;;17.70;59.10;;;;;;4198999;28;20513;-69
2022/05/08 09:10:07;;;;;;;5.67;3.40;;;17.80;58.50;;;;;;4198745;28;20192;-68
2022/05/08 09:12:16;;;;;;;5.13;3.60;;;17.70;59.40;;;;;;4193134;28;20194;-70
2022/05/08 09:14:30;;;;;;;4.43;3.63;;;17.80;58.60;;;;;;4199375;28;20183;-71
2022/05/08 09:16:51;;;;;;;4.00;3.60;;;17.50;58.90;;;;;;4211317;28;20180;-69
2022/05/08 09:18:52;;;;;;;5.40;4.00;;;17.60;57.80;;;;;;4204625;28;20633;-70
2022/05/08 09:20:57;;;;;;;7.77;4.67;;;17.30;59.80;;;;;;4208345;28;20226;-68
2022/05/08 09:23:15;;;;;;;4.87;3.87;;;16.80;61.50;;;;;;4205195;28;20323;-68
2022/05/08 09:25:16;;;;;;;4.10;3.57;;;16.90;63.20;;;;;;4204919;28;20191;-68
2022/05/08 09:27:18;;;;;;;4.93;4.43;;;17.20;60.30;;;;;;4207039;28;20594;-68
2022/05/08 09:29:22;;;;;;;3.87;3.43;;;17.30;58.20;;;;;;4204706;28;20239;-68
2022/05/08 09:31:22;;;;;;;4.13;3.73;;;17.20;60.20;;;;;;4208973;28;20198;-68
2022/05/08 09:33:38;;;;;;;5.10;3.80;;;17.10;59.70;;;;;;4204037;28;20274;-68
2022/05/08 09:35:43;;;;;;;4.50;4.10;;;17.00;60.00;;;;;;4198101;28;20258;-67
2022/05/08 09:37:53;;;;;;;5.00;3.70;;;16.70;62.40;;;;;;4211206;28;20190;-68
2022/05/08 09:40:14;;;;;;;5.23;4.53;;;16.70;61.60;;;;;;4214705;28;20206;-68
2022/05/08 09:42:37;;;;;;;4.70;4.10;;;16.50;66.60;;;;;;4183374;28;20195;-68
2022/05/08 09:45:07;;;;;;;5.07;4.17;;;16.80;65.00;;;;;;4210348;28;20180;-68
2022/05/08 09:47:08;;;;;;;5.87;3.70;;;17.20;62.60;;;;;;4206056;28;20628;-69
2022/05/08 09:49:11;;;;;;;7.30;3.50;;;17.50;60.00;;;;;;4205809;28;20207;-67
2022/05/08 09:51:13;;;;;;;5.33;3.73;;;18.10;58.60;;;;;;4206612;28;20678;-67
2022/05/08 09:53:20;;;;;;;5.90;3.87;;;18.30;56.90;;;;;;4204899;28;20547;-67
2022/05/08 09:55:21;;;;;;;4.10;3.70;;;17.90;55.30;;;;;;4207293;28;20277;-68
2022/05/08 09:57:22;;;;;;;5.93;4.37;;;17.60;58.20;;;;;;4203628;28;20198;-68
2022/05/08 09:59:23;;;;;;;4.10;3.70;;;17.40;57.60;;;;;;4208155;28;20195;-67
2022/05/08 10:01:24;;;;;;;4.27;3.57;;;17.30;57.60;;;;;;4203328;28;20271;-66
2022/05/08 10:03:26;;;;;;;4.10;3.53;;;17.40;58.40;;;;;;4206950;28;20229;-66
2022/05/08 10:05:27;;;;;;;4.00;3.57;;;17.60;56.40;;;;;;4199069;28;20211;-67
2022/05/08 10:07:28;;;;;;;4.70;3.33;;;17.60;58.30;;;;;;4205682;28;20263;-68
2022/05/08 10:14:08;;;;;;;5.47;3.53;;;17.90;56.00;;;;;;4177921;28;20978;-70
2022/05/08 10:16:47;;;;;;;5.33;3.90;;;17.80;56.80;;;;;;4210387;28;20185;-68
2022/05/08 10:18:47;;;;;;;4.00;3.60;;;17.40;55.70;;;;;;4199940;28;20827;-69
2022/05/08 10:21:01;;;;;;;4.17;3.23;;;17.60;56.90;;;;;;4205383;28;20239;-69
2022/05/08 10:23:03;;;;;;;3.97;3.40;;;17.90;54.80;;;;;;4202062;28;20236;-68
2022/05/08 10:25:17;;;;;;;3.97;3.00;;;18.10;54.40;;;;;;4202804;28;20211;-68
2022/05/08 10:27:23;;;;;;;4.27;3.47;;;18.40;53.40;;;;;;4203560;28;20183;-69
2022/05/08 10:29:24;;;;;;;4.87;3.10;;;18.00;54.80;;;;;;4199558;28;20195;-68
2022/05/08 10:31:48;;;;;;;5.07;3.53;;;18.50;54.30;;;;;;4204910;28;20178;-68
2022/05/08 10:34:07;;;;;;;3.40;3.10;;;19.30;50.80;;;;;;4196612;28;20714;-67
2022/05/08 10:36:08;;;;;;;4.53;3.80;;;19.10;53.00;;;;;;4193747;28;20252;-68
2022/05/08 10:38:08;;;;;;;4.97;3.50;;;19.00;52.00;;;;;;4210539;28;20179;-67
2022/05/08 10:40:24;;;;;;;5.00;4.00;;;18.90;54.10;;;;;;4194511;28;20203;-67
2022/05/08 10:42:27;;;;;;;4.17;3.77;;;18.60;53.30;;;;;;4208067;28;20236;-67
2022/05/08 10:44:36;;;;;;;4.20;3.80;;;18.30;54.10;;;;;;4196818;28;20547;-67
2022/05/08 10:46:37;;;;;;;4.10;3.40;;;18.20;54.20;;;;;;4206063;28;20671;-66
2022/05/08 10:48:38;;;;;;;4.43;3.83;;;18.70;54.20;;;;;;4198547;28;20175;-69
2022/05/08 10:50:41;;;;;;;3.70;3.40;;;19.00;52.40;;;;;;4206338;28;20253;-70
2022/05/08 10:52:44;;;;;;;4.37;3.73;;;19.50;50.20;;;;;;4198754;28;20246;-70
2022/05/08 10:54:58;;;;;;;4.20;3.57;;;19.50;50.30;;;;;;4205532;28;20211;-68